sensor_id;sensor_type;location;lat;lon;timestamp;pressure;altitude;pressure_sealevel;temperature;humidity
69318;BME280;56457;52.190;4.440;2023-08-06T00:00:04;100664.56;;;15.94;100.00
69318;BME280;56457;52.190;4.440;2023-08-06T00:01:04;100658.47;;;15.92;100.00
69318;BME280;56457;52.190;4.440;2023-08-06T00:02:05;100658.41;;;15.93;100.00
69318;BME280;56457;52.190;4.440;2023-08-06T00:03:05;100661.94;;;15.94;100.00
69318;BME280;56457;52.190;4.440;2023-08-06T00:04:05;100659.34;;;15.92;100.00
69318;BME280;56457;52.190;4.440;2023-08-06T00:05:06;100661.19;;;15.90;100.00
69318;BME280;56457;52.190;4.440;2023-08-06T00:06:08;100664.63;;;15.92;100.00
69318;BME280;56457;52.190;4.440;2023-08-06T00:07:09;100659.44;;;15.89;100.00
69318;BME280;56457;52.190;4.440;2023-08-06T00:08:11;100660.28;;;15.89;100.00
69318;BME280;56457;52.190;4.440;2023-08-06T00:09:11;100666.47;;;15.90;100.00
69318;BME280;56457;52.190;4.440;2023-08-06T00:10:11;100662.91;;;15.91;100.00
69318;BME280;56457;52.190;4.440;2023-08-06T00:11:12;100661.13;;;15.92;100.00
69318;BME280;56457;52.190;4.440;2023-08-06T00:12:13;100659.34;;;15.92;100.00
69318;BME280;56457;52.190;4.440;2023-08-06T00:13:13;100664.56;;;15.94;100.00
69318;BME280;56457;52.190;4.440;2023-08-06T00:14:13;100661.06;;;15.93;100.00
69318;BME280;56457;52.190;4.440;2023-08-06T00:15:15;100664.56;;;15.94;100.00
69318;BME280;56457;52.190;4.440;2023-08-06T00:16:15;100660.16;;;15.94;100.00
69318;BME280;56457;52.190;4.440;2023-08-06T00:17:16;100658.38;;;15.95;100.00
69318;BME280;56457;52.190;4.440;2023-08-06T00:18:16;100660.97;;;15.96;100.00
69318;BME280;56457;52.190;4.440;2023-08-06T00:19:16;100666.28;;;15.96;100.00
69318;BME280;56457;52.190;4.440;2023-08-06T00:20:16;100662.75;;;15.96;100.00
69318;BME280;56457;52.190;4.440;2023-08-06T00:21:17;100666.22;;;15.98;100.00
69318;BME280;56457;52.190;4.440;2023-08-06T00:22:17;100663.50;;;15.99;100.00
69318;BME280;56457;52.190;4.440;2023-08-06T00:23:17;100668.88;;;15.98;100.00
69318;BME280;56457;52.190;4.440;2023-08-06T00:24:18;100662.72;;;15.97;100.00
69318;BME280;56457;52.190;4.440;2023-08-06T00:25:18;100662.84;;;15.93;100.00
69318;BME280;56457;52.190;4.440;2023-08-06T00:26:19;100659.41;;;15.91;100.00
69318;BME280;56457;52.190;4.440;2023-08-06T00:27:20;100663.66;;;15.95;100.00
69318;BME280;56457;52.190;4.440;2023-08-06T00:28:20;100662.78;;;15.94;100.00
69318;BME280;56457;52.190;4.440;2023-08-06T00:29:20;100662.78;;;15.94;100.00
69318;BME280;56457;52.190;4.440;2023-08-06T00:30:20;100662.91;;;15.91;100.00
69318;BME280;56457;52.190;4.440;2023-08-06T00:31:21;100661.94;;;15.94;100.00
69318;BME280;56457;52.190;4.440;2023-08-06T00:32:21;100670.66;;;15.96;100.00
69318;BME280;56457;52.190;4.440;2023-08-06T00:33:22;100671.66;;;15.93;100.00
69318;BME280;56457;52.190;4.440;2023-08-06T00:34:22;100665.44;;;15.94;100.00
69318;BME280;56457;52.190;4.440;2023-08-06T00:35:22;100673.28;;;15.97;100.00
69318;BME280;56457;52.190;4.440;2023-08-06T00:36:23;100672.38;;;15.98;100.00
69318;BME280;56457;52.190;4.440;2023-08-06T00:37:23;100671.38;;;16.01;100.00
69318;BME280;56457;52.190;4.440;2023-08-06T00:38:23;100673.13;;;16.02;100.00
69318;BME280;56457;52.190;4.440;2023-08-06T00:39:24;100665.44;;;15.94;100.00
69318;BME280;56457;52.190;4.440;2023-08-06T00:40:24;100668.19;;;15.91;100.00
69318;BME280;56457;52.190;4.440;2023-08-06T00:41:24;100670.00;;;15.89;100.00
69318;BME280;56457;52.190;4.440;2023-08-06T00:42:25;100675.22;;;15.92;100.00
69318;BME280;56457;52.190;4.440;2023-08-06T00:43:25;100673.50;;;15.91;100.00
69318;BME280;56457;52.190;4.440;2023-08-06T00:44:25;100669.88;;;15.94;100.00
69318;BME280;56457;52.190;4.440;2023-08-06T00:45:26;100669.78;;;15.97;100.00
69318;BME280;56457;52.190;4.440;2023-08-06T00:46:26;100662.72;;;15.97;100.00
69318;BME280;56457;52.190;4.440;2023-08-06T00:47:26;100666.16;;;15.99;100.00
69318;BME280;56457;52.190;4.440;2023-08-06T00:48:27;100668.00;;;15.97;100.00
69318;BME280;56457;52.190;4.440;2023-08-06T00:49:27;100667.88;;;16.00;100.00
69318;BME280;56457;52.190;4.440;2023-08-06T00:50:28;100658.28;;;15.98;100.00
69318;BME280;56457;52.190;4.440;2023-08-06T00:51:28;100664.50;;;15.97;100.00
69318;BME280;56457;52.190;4.440;2023-08-06T00:52:28;100665.38;;;15.96;100.00
69318;BME280;56457;52.190;4.440;2023-08-06T00:53:31;100670.84;;;15.91;100.00
69318;BME280;56457;52.190;4.440;2023-08-06T00:54:31;100673.50;;;15.89;100.00
69318;BME280;56457;52.190;4.440;2023-08-06T00:55:32;100670.00;;;15.89;100.00
69318;BME280;56457;52.190;4.440;2023-08-06T00:56:34;100668.34;;;15.86;100.00
69318;BME280;56457;52.190;4.440;2023-08-06T00:57:35;100672.78;;;15.86;100.00
69318;BME280;56457;52.190;4.440;2023-08-06T00:58:36;100675.41;;;15.86;100.00
69318;BME280;56457;52.190;4.440;2023-08-06T00:59:36;100677.19;;;15.85;100.00
69318;BME280;56457;52.190;4.440;2023-08-06T01:00:37;100675.47;;;15.84;100.00
69318;BME280;56457;52.190;4.440;2023-08-06T01:01:38;100665.69;;;15.86;100.00
69318;BME280;56457;52.190;4.440;2023-08-06T01:02:38;100673.56;;;15.88;100.00
69318;BME280;56457;52.190;4.440;2023-08-06T01:03:39;100671.97;;;15.84;100.00
69318;BME280;56457;52.190;4.440;2023-08-06T01:04:39;100678.00;;;15.87;100.00
69318;BME280;56457;52.190;4.440;2023-08-06T01:05:39;100674.44;;;15.88;100.00
69318;BME280;56457;52.190;4.440;2023-08-06T01:06:52;100670.88;;;15.89;100.00
69318;BME280;56457;52.190;4.440;2023-08-06T01:09:31;100672.56;;;15.92;100.00
69318;BME280;56457;52.190;4.440;2023-08-06T01:11:40;100664.69;;;15.91;100.00
69318;BME280;56457;52.190;4.440;2023-08-06T01:13:48;100666.47;;;15.90;100.00
69318;BME280;56457;52.190;4.440;2023-08-06T01:15:07;100663.91;;;15.87;100.00
69318;BME280;56457;52.190;4.440;2023-08-06T01:16:10;100662.19;;;15.86;100.00
69318;BME280;56457;52.190;4.440;2023-08-06T01:17:11;100670.00;;;15.89;100.00
69318;BME280;56457;52.190;4.440;2023-08-06T01:18:12;100663.09;;;15.85;100.00
69318;BME280;56457;52.190;4.440;2023-08-06T01:19:19;100670.97;;;15.86;100.00
69318;BME280;56457;52.190;4.440;2023-08-06T01:20:19;100672.66;;;15.89;100.00
69318;BME280;56457;52.190;4.440;2023-08-06T01:21:20;100666.47;;;15.90;100.00
69318;BME280;56457;52.190;4.440;2023-08-06T01:22:20;100671.91;;;15.85;100.00
69318;BME280;56457;52.190;4.440;2023-08-06T01:23:20;100668.41;;;15.83;100.00
69318;BME280;56457;52.190;4.440;2023-08-06T01:24:20;100671.84;;;15.87;100.00
69318;BME280;56457;52.190;4.440;2023-08-06T01:25:21;100666.47;;;15.90;100.00
69318;BME280;56457;52.190;4.440;2023-08-06T01:27:48;100668.19;;;15.91;100.00
69318;BME280;56457;52.190;4.440;2023-08-06T01:30:06;100665.56;;;15.91;100.00
69318;BME280;56457;52.190;4.440;2023-08-06T01:31:10;100666.34;;;15.93;100.00
69318;BME280;56457;52.190;4.440;2023-08-06T01:32:14;100671.78;;;15.88;100.00
69318;BME280;56457;52.190;4.440;2023-08-06T01:33:16;100669.16;;;15.88;100.00
69318;BME280;56457;52.190;4.440;2023-08-06T01:34:21;100668.34;;;15.86;100.00
69318;BME280;56457;52.190;4.440;2023-08-06T01:35:21;100669.19;;;15.87;100.00
69318;BME280;56457;52.190;4.440;2023-08-06T01:36:22;100671.91;;;15.85;100.00
69318;BME280;56457;52.190;4.440;2023-08-06T01:37:23;100671.03;;;15.85;100.00
69318;BME280;56457;52.190;4.440;2023-08-06T01:38:24;100684.00;;;15.93;100.00
69318;BME280;56457;52.190;4.440;2023-08-06T01:39:24;100673.28;;;15.97;100.00
69318;BME280;56457;52.190;4.440;2023-08-06T01:40:25;100674.25;;;15.95;100.00
69318;BME280;56457;52.190;4.440;2023-08-06T01:41:27;100668.09;;;15.94;100.00
69318;BME280;56457;52.190;4.440;2023-08-06T01:42:27;100671.78;;;15.88;100.00
69318;BME280;56457;52.190;4.440;2023-08-06T01:43:27;100675.41;;;15.86;100.00
69318;BME280;56457;52.190;4.440;2023-08-06T01:44:28;100673.50;;;15.89;100.00
69318;BME280;56457;52.190;4.440;2023-08-06T01:45:28;100677.88;;;15.92;100.00
69318;BME280;56457;52.190;4.440;2023-08-06T01:46:28;100676.81;;;15.98;100.00
69318;BME280;56457;52.190;4.440;2023-08-06T01:47:29;100675.00;;;15.98;100.00
69318;BME280;56457;52.190;4.440;2023-08-06T01:48:29;100672.56;;;15.92;100.00
69318;BME280;56457;52.190;4.440;2023-08-06T01:49:29;100678.66;;;15.94;100.00
69318;BME280;56457;52.190;4.440;2023-08-06T01:50:30;100674.25;;;15.95;100.00
69318;BME280;56457;52.190;4.440;2023-08-06T01:51:30;100681.38;;;15.93;100.00
69318;BME280;56457;52.190;4.440;2023-08-06T01:52:30;100680.59;;;15.89;100.00
69318;BME280;56457;52.190;4.440;2023-08-06T01:53:31;100677.00;;;15.92;100.00
69318;BME280;56457;52.190;4.440;2023-08-06T01:54:31;100682.34;;;15.90;100.00
69318;BME280;56457;52.190;4.440;2023-08-06T01:55:32;100684.06;;;15.91;100.00
69318;BME280;56457;52.190;4.440;2023-08-06T01:56:32;100685.03;;;15.88;100.00
69318;BME280;56457;52.190;4.440;2023-08-06T01:57:33;100684.06;;;15.91;100.00
69318;BME280;56457;52.190;4.440;2023-08-06T01:58:33;100685.81;;;15.92;100.00
69318;BME280;56457;52.190;4.440;2023-08-06T01:59:33;100687.53;;;15.93;100.00
69318;BME280;56457;52.190;4.440;2023-08-06T02:00:33;100683.25;;;15.89;100.00
69318;BME280;56457;52.190;4.440;2023-08-06T02:01:34;100686.75;;;15.89;100.00
69318;BME280;56457;52.190;4.440;2023-08-06T02:02:34;100688.50;;;15.91;100.00
69318;BME280;56457;52.190;4.440;2023-08-06T02:03:34;100686.91;;;15.85;100.00
69318;BME280;56457;52.190;4.440;2023-08-06T02:04:35;100686.94;;;15.83;100.00
69318;BME280;56457;52.190;4.440;2023-08-06T02:05:35;100689.75;;;15.79;100.00
69318;BME280;56457;52.190;4.440;2023-08-06T02:06:35;100698.59;;;15.78;100.00
69318;BME280;56457;52.190;4.440;2023-08-06T02:07:35;100693.34;;;15.76;100.00
69318;BME280;56457;52.190;4.440;2023-08-06T02:08:36;100697.69;;;15.79;100.00
69318;BME280;56457;52.190;4.440;2023-08-06T02:09:36;100695.13;;;15.76;100.00
69318;BME280;56457;52.190;4.440;2023-08-06T02:10:36;100696.78;;;15.80;100.00
69318;BME280;56457;52.190;4.440;2023-08-06T02:11:37;100696.72;;;15.81;100.00
69318;BME280;56457;52.190;4.440;2023-08-06T02:12:37;100703.78;;;15.81;100.00
69318;BME280;56457;52.190;4.440;2023-08-06T02:13:37;100699.47;;;15.78;100.00
69318;BME280;56457;52.190;4.440;2023-08-06T02:14:37;100690.75;;;15.75;100.00
69318;BME280;56457;52.190;4.440;2023-08-06T02:15:44;100700.47;;;15.74;100.00
69318;BME280;56457;52.190;4.440;2023-08-06T02:16:45;100704.94;;;15.72;100.00
69318;BME280;56457;52.190;4.440;2023-08-06T02:17:45;100698.75;;;15.73;100.00
69318;BME280;56457;52.190;4.440;2023-08-06T02:18:45;100699.69;;;15.71;100.00
69318;BME280;56457;52.190;4.440;2023-08-06T02:19:46;100702.25;;;15.74;100.00
69318;BME280;56457;52.190;4.440;2023-08-06T02:20:58;100709.13;;;15.79;100.00
69318;BME280;56457;52.190;4.440;2023-08-06T02:21:59;100698.50;;;15.81;100.00
69318;BME280;56457;52.190;4.440;2023-08-06T02:22:59;100702.91;;;15.80;100.00
69318;BME280;56457;52.190;4.440;2023-08-06T02:23:59;100700.13;;;15.85;100.00
69318;BME280;56457;52.190;4.440;2023-08-06T02:25:00;100692.09;;;15.88;100.00
69318;BME280;56457;52.190;4.440;2023-08-06T02:26:00;100696.56;;;15.86;100.00
69318;BME280;56457;52.190;4.440;2023-08-06T02:27:01;100693.13;;;15.84;100.00
69318;BME280;56457;52.190;4.440;2023-08-06T02:28:01;100701.00;;;15.85;100.00
69318;BME280;56457;52.190;4.440;2023-08-06T02:29:01;100701.88;;;15.86;100.00
69318;BME280;56457;52.190;4.440;2023-08-06T02:30:02;100702.78;;;15.85;100.00
69318;BME280;56457;52.190;4.440;2023-08-06T02:31:03;100699.09;;;15.91;100.00
69318;BME280;56457;52.190;4.440;2023-08-06T02:32:04;100699.03;;;15.92;100.00
69318;BME280;56457;52.190;4.440;2023-08-06T02:33:04;100694.66;;;15.91;100.00
69318;BME280;56457;52.190;4.440;2023-08-06T02:34:05;100706.16;;;15.90;100.00
69318;BME280;56457;52.190;4.440;2023-08-06T02:35:05;100693.81;;;15.89;100.00
69318;BME280;56457;52.190;4.440;2023-08-06T02:36:06;100700.03;;;15.88;100.00
69318;BME280;56457;52.190;4.440;2023-08-06T02:37:06;100698.09;;;15.93;100.00
69318;BME280;56457;52.190;4.440;2023-08-06T02:38:06;100698.09;;;15.93;100.00
69318;BME280;56457;52.190;4.440;2023-08-06T02:39:06;100705.97;;;15.96;100.00
69318;BME280;56457;52.190;4.440;2023-08-06T02:40:07;100698.03;;;15.96;100.00
69318;BME280;56457;52.190;4.440;2023-08-06T02:41:07;100704.13;;;15.98;100.00
69318;BME280;56457;52.190;4.440;2023-08-06T02:42:08;100705.72;;;16.04;100.00
69318;BME280;56457;52.190;4.440;2023-08-06T02:43:08;100705.66;;;16.05;100.00
69318;BME280;56457;52.190;4.440;2023-08-06T02:44:08;100706.56;;;16.04;100.00
69318;BME280;56457;52.190;4.440;2023-08-06T02:45:09;100708.25;;;16.07;100.00
69318;BME280;56457;52.190;4.440;2023-08-06T02:46:09;100700.50;;;16.01;100.00
69318;BME280;56457;52.190;4.440;2023-08-06T02:47:09;100705.84;;;15.99;100.00
69318;BME280;56457;52.190;4.440;2023-08-06T02:48:10;100711.13;;;15.99;100.00
69318;BME280;56457;52.190;4.440;2023-08-06T02:49:10;100705.97;;;15.96;100.00
69318;BME280;56457;52.190;4.440;2023-08-06T02:50:10;100707.81;;;15.93;100.00
69318;BME280;56457;52.190;4.440;2023-08-06T02:51:11;100705.25;;;15.91;100.00
69318;BME280;56457;52.190;4.440;2023-08-06T02:52:11;100704.38;;;15.91;100.00
69318;BME280;56457;52.190;4.440;2023-08-06T02:53:11;100705.25;;;15.91;100.00
69318;BME280;56457;52.190;4.440;2023-08-06T02:54:12;100702.66;;;15.88;100.00
69318;BME280;56457;52.190;4.440;2023-08-06T02:55:12;100705.38;;;15.86;100.00
69318;BME280;56457;52.190;4.440;2023-08-06T02:56:12;100700.88;;;15.88;100.00
69318;BME280;56457;52.190;4.440;2023-08-06T02:57:13;100712.25;;;15.92;100.00
69318;BME280;56457;52.190;4.440;2023-08-06T02:58:16;100706.03;;;15.93;100.00
69318;BME280;56457;52.190;4.440;2023-08-06T02:59:17;100709.50;;;15.95;100.00
69318;BME280;56457;52.190;4.440;2023-08-06T03:00:17;100703.19;;;15.99;100.00
69318;BME280;56457;52.190;4.440;2023-08-06T03:01:17;100707.63;;;15.99;100.00
69318;BME280;56457;52.190;4.440;2023-08-06T03:02:18;100700.66;;;15.96;100.00
69318;BME280;56457;52.190;4.440;2023-08-06T03:03:18;100702.41;;;15.97;100.00
69318;BME280;56457;52.190;4.440;2023-08-06T03:04:18;100700.69;;;15.95;100.00
69318;BME280;56457;52.190;4.440;2023-08-06T03:05:19;100697.13;;;15.96;100.00
69318;BME280;56457;52.190;4.440;2023-08-06T03:06:19;100705.13;;;15.94;100.00
69318;BME280;56457;52.190;4.440;2023-08-06T03:07:19;100703.41;;;15.93;100.00
69318;BME280;56457;52.190;4.440;2023-08-06T03:08:19;100701.47;;;15.98;100.00
69318;BME280;56457;52.190;4.440;2023-08-06T03:09:23;100705.84;;;15.99;100.00
69318;BME280;56457;52.190;4.440;2023-08-06T03:10:23;100699.56;;;16.03;100.00
69318;BME280;56457;52.190;4.440;2023-08-06T03:11:23;100698.63;;;16.04;100.00
69318;BME280;56457;52.190;4.440;2023-08-06T03:12:23;100700.41;;;16.04;100.00
69318;BME280;56457;52.190;4.440;2023-08-06T03:13:24;100691.63;;;16.03;100.00
69318;BME280;56457;52.190;4.440;2023-08-06T03:14:24;100697.78;;;16.02;100.00
69318;BME280;56457;52.190;4.440;2023-08-06T03:15:24;100696.06;;;16.01;100.00
69318;BME280;56457;52.190;4.440;2023-08-06T03:16:25;100703.00;;;16.05;100.00
69318;BME280;56457;52.190;4.440;2023-08-06T03:17:25;100693.19;;;16.09;100.00
69318;BME280;56457;52.190;4.440;2023-08-06T03:18:26;100696.72;;;16.08;100.00
69318;BME280;56457;52.190;4.440;2023-08-06T03:19:26;100700.31;;;16.07;100.00
69318;BME280;56457;52.190;4.440;2023-08-06T03:20:26;100699.34;;;16.09;100.00
69318;BME280;56457;52.190;4.440;2023-08-06T03:21:27;100690.75;;;16.03;100.00
69318;BME280;56457;52.190;4.440;2023-08-06T03:22:27;100703.00;;;16.05;100.00
69318;BME280;56457;52.190;4.440;2023-08-06T03:23:27;100702.22;;;16.02;100.00
69318;BME280;56457;52.190;4.440;2023-08-06T03:24:27;100705.72;;;16.02;100.00
69318;BME280;56457;52.190;4.440;2023-08-06T03:25:28;100710.22;;;16.00;100.00
69318;BME280;56457;52.190;4.440;2023-08-06T03:26:28;100713.78;;;15.99;100.00
69318;BME280;56457;52.190;4.440;2023-08-06T03:27:28;100709.47;;;15.97;100.00
69318;BME280;56457;52.190;4.440;2023-08-06T03:28:29;100697.31;;;15.89;100.00
69318;BME280;56457;52.190;4.440;2023-08-06T03:29:29;100687.66;;;15.88;100.00
69318;BME280;56457;52.190;4.440;2023-08-06T03:30:30;100676.47;;;15.80;100.00
69318;BME280;56457;52.190;4.440;2023-08-06T03:31:30;100668.59;;;15.79;100.00
69318;BME280;56457;52.190;4.440;2023-08-06T03:32:30;100668.22;;;15.61;100.00
69318;BME280;56457;52.190;4.440;2023-08-06T03:33:30;100661.22;;;15.60;100.00
69318;BME280;56457;52.190;4.440;2023-08-06T03:34:31;100665.66;;;15.58;100.00
69318;BME280;56457;52.190;4.440;2023-08-06T03:35:31;100665.78;;;15.55;100.00
69318;BME280;56457;52.190;4.440;2023-08-06T03:36:32;100667.59;;;15.53;100.00
69318;BME280;56457;52.190;4.440;2023-08-06T03:37:32;100665.03;;;15.50;100.00
69318;BME280;56457;52.190;4.440;2023-08-06T03:38:32;100655.50;;;15.45;100.00
69318;BME280;56457;52.190;4.440;2023-08-06T03:39:32;100671.44;;;15.43;100.00
69318;BME280;56457;52.190;4.440;2023-08-06T03:40:34;100669.53;;;15.48;100.00
69318;BME280;56457;52.190;4.440;2023-08-06T03:41:35;100671.38;;;15.45;100.00
69318;BME280;56457;52.190;4.440;2023-08-06T03:42:35;100659.94;;;15.44;100.00
69318;BME280;56457;52.190;4.440;2023-08-06T03:43:35;100662.59;;;15.44;100.00
69318;BME280;56457;52.190;4.440;2023-08-06T03:44:36;100660.06;;;15.40;100.00
69318;BME280;56457;52.190;4.440;2023-08-06T03:45:36;100659.31;;;15.36;100.00
69318;BME280;56457;52.190;4.440;2023-08-06T03:46:36;100659.19;;;15.41;100.00
69318;BME280;56457;52.190;4.440;2023-08-06T03:47:37;100664.59;;;15.36;100.00
69318;BME280;56457;52.190;4.440;2023-08-06T03:48:37;100659.41;;;15.33;100.00
69318;BME280;56457;52.190;4.440;2023-08-06T03:49:37;100660.00;;;15.43;100.00
69318;BME280;56457;52.190;4.440;2023-08-06T03:50:37;100648.56;;;15.42;100.00
69318;BME280;56457;52.190;4.440;2023-08-06T03:51:39;100658.84;;;15.51;100.00
69318;BME280;56457;52.190;4.440;2023-08-06T03:52:39;100655.38;;;15.49;100.00
69318;BME280;56457;52.190;4.440;2023-08-06T03:53:39;100655.19;;;15.55;100.00
69318;BME280;56457;52.190;4.440;2023-08-06T03:54:40;100653.41;;;15.56;100.00
69318;BME280;56457;52.190;4.440;2023-08-06T03:55:40;100649.84;;;15.57;100.00
69318;BME280;56457;52.190;4.440;2023-08-06T03:56:41;100656.06;;;15.56;100.00
69318;BME280;56457;52.190;4.440;2023-08-06T03:57:41;100657.88;;;15.54;100.00
69318;BME280;56457;52.190;4.440;2023-08-06T03:58:42;100650.88;;;15.53;100.00
69318;BME280;56457;52.190;4.440;2023-08-06T03:59:42;100651.63;;;15.56;100.00
69318;BME280;56457;52.190;4.440;2023-08-06T04:00:42;100651.63;;;15.56;100.00
69318;BME280;56457;52.190;4.440;2023-08-06T04:01:42;100647.06;;;15.61;100.00
69318;BME280;56457;52.190;4.440;2023-08-06T04:02:43;100648.75;;;15.66;100.00
69318;BME280;56457;52.190;4.440;2023-08-06T04:03:43;100651.47;;;15.63;100.00
69318;BME280;56457;52.190;4.440;2023-08-06T04:04:43;100656.84;;;15.59;100.00
69318;BME280;56457;52.190;4.440;2023-08-06T04:05:44;100655.09;;;15.58;100.00
69318;BME280;56457;52.190;4.440;2023-08-06T04:06:44;100653.28;;;15.60;100.00
69318;BME280;56457;52.190;4.440;2023-08-06T04:07:44;100653.16;;;15.65;100.00
69318;BME280;56457;52.190;4.440;2023-08-06T04:08:45;100659.31;;;15.66;100.00
69318;BME280;56457;52.190;4.440;2023-08-06T04:09:54;100655.84;;;15.64;100.00
69318;BME280;56457;52.190;4.440;2023-08-06T04:10:55;100661.09;;;15.65;100.00
69318;BME280;56457;52.190;4.440;2023-08-06T04:11:55;100661.09;;;15.65;100.00
69318;BME280;56457;52.190;4.440;2023-08-06T04:12:56;100662.84;;;15.65;100.00
69318;BME280;56457;52.190;4.440;2023-08-06T04:13:56;100668.00;;;15.69;100.00
69318;BME280;56457;52.190;4.440;2023-08-06T04:14:57;100665.28;;;15.72;100.00
69318;BME280;56457;52.190;4.440;2023-08-06T04:16:01;100666.91;;;15.76;100.00
69318;BME280;56457;52.190;4.440;2023-08-06T04:17:02;100665.16;;;15.75;100.00
69318;BME280;56457;52.190;4.440;2023-08-06T04:18:02;100669.72;;;15.72;100.00
69318;BME280;56457;52.190;4.440;2023-08-06T04:19:03;100675.75;;;15.75;100.00
69318;BME280;56457;52.190;4.440;2023-08-06T04:20:03;100668.59;;;15.79;100.00
69318;BME280;56457;52.190;4.440;2023-08-06T04:21:04;100667.69;;;15.80;100.00
69318;BME280;56457;52.190;4.440;2023-08-06T04:22:04;100672.91;;;15.81;100.00
69318;BME280;56457;52.190;4.440;2023-08-06T04:23:05;100672.03;;;15.81;100.00
69318;BME280;56457;52.190;4.440;2023-08-06T04:24:06;100672.09;;;15.79;100.00
69318;BME280;56457;52.190;4.440;2023-08-06T04:25:06;100680.97;;;15.77;100.00
69318;BME280;56457;52.190;4.440;2023-08-06T04:26:07;100680.03;;;15.79;100.00
69318;BME280;56457;52.190;4.440;2023-08-06T04:27:07;100681.75;;;15.80;100.00
69318;BME280;56457;52.190;4.440;2023-08-06T04:28:08;100682.53;;;15.84;100.00
69318;BME280;56457;52.190;4.440;2023-08-06T04:29:08;100685.88;;;15.89;100.00
69318;BME280;56457;52.190;4.440;2023-08-06T04:30:08;100683.16;;;15.92;100.00
69318;BME280;56457;52.190;4.440;2023-08-06T04:31:09;100684.06;;;15.91;100.00
69318;BME280;56457;52.190;4.440;2023-08-06T04:32:09;100683.88;;;15.97;100.00
69318;BME280;56457;52.190;4.440;2023-08-06T04:33:10;100686.53;;;15.96;100.00
69318;BME280;56457;52.190;4.440;2023-08-06T04:34:10;100685.84;;;15.91;100.00
69318;BME280;56457;52.190;4.440;2023-08-06T04:35:11;100684.88;;;15.93;100.00
69318;BME280;56457;52.190;4.440;2023-08-06T04:36:12;100685.84;;;15.91;100.00
69318;BME280;56457;52.190;4.440;2023-08-06T04:37:12;100684.16;;;15.88;100.00
69318;BME280;56457;52.190;4.440;2023-08-06T04:38:13;100690.28;;;15.90;100.00
69318;BME280;56457;52.190;4.440;2023-08-06T04:39:13;100675.47;;;15.84;100.00
69318;BME280;56457;52.190;4.440;2023-08-06T04:40:13;100687.00;;;15.82;100.00
69318;BME280;56457;52.190;4.440;2023-08-06T04:41:14;100689.59;;;15.83;100.00
69318;BME280;56457;52.190;4.440;2023-08-06T04:42:14;100694.00;;;15.84;100.00
69318;BME280;56457;52.190;4.440;2023-08-06T04:43:14;100690.56;;;15.81;100.00
69318;BME280;56457;52.190;4.440;2023-08-06T04:44:14;100697.63;;;15.80;100.00
69318;BME280;56457;52.190;4.440;2023-08-06T04:45:15;100695.78;;;15.82;100.00
69318;BME280;56457;52.190;4.440;2023-08-06T04:46:15;100693.00;;;15.87;100.00
69318;BME280;56457;52.190;4.440;2023-08-06T04:47:15;100690.28;;;15.90;100.00
69318;BME280;56457;52.190;4.440;2023-08-06T04:48:16;100691.16;;;15.89;100.00
69318;BME280;56457;52.190;4.440;2023-08-06T04:49:17;100694.75;;;15.88;100.00
69318;BME280;56457;52.190;4.440;2023-08-06T04:50:18;100694.84;;;15.85;100.00
69318;BME280;56457;52.190;4.440;2023-08-06T04:51:18;100698.44;;;15.82;100.00
69318;BME280;56457;52.190;4.440;2023-08-06T04:52:18;100698.31;;;15.87;100.00
69318;BME280;56457;52.190;4.440;2023-08-06T04:53:19;100699.31;;;15.83;100.00
69318;BME280;56457;52.190;4.440;2023-08-06T04:54:19;100702.00;;;15.81;100.00
69318;BME280;56457;52.190;4.440;2023-08-06T04:55:20;100703.72;;;15.82;100.00
69318;BME280;56457;52.190;4.440;2023-08-06T04:56:20;100710.00;;;15.80;100.00
69318;BME280;56457;52.190;4.440;2023-08-06T04:57:20;100716.97;;;15.82;100.00
69318;BME280;56457;52.190;4.440;2023-08-06T04:58:21;100713.50;;;15.80;100.00
69318;BME280;56457;52.190;4.440;2023-08-06T04:59:21;100710.91;;;15.79;100.00
69318;BME280;56457;52.190;4.440;2023-08-06T05:00:22;100719.78;;;15.78;100.00
69318;BME280;56457;52.190;4.440;2023-08-06T05:01:22;100711.84;;;15.76;100.00
69318;BME280;56457;52.190;4.440;2023-08-06T05:02:22;100716.09;;;15.82;100.00
69318;BME280;56457;52.190;4.440;2023-08-06T05:03:22;100710.81;;;15.82;100.00
69318;BME280;56457;52.190;4.440;2023-08-06T05:04:23;100707.97;;;15.88;100.00
69318;BME280;56457;52.190;4.440;2023-08-06T05:05:23;100709.66;;;15.91;100.00
69318;BME280;56457;52.190;4.440;2023-08-06T05:06:23;100709.69;;;15.89;100.00
69318;BME280;56457;52.190;4.440;2023-08-06T05:07:24;100706.19;;;15.88;100.00
69318;BME280;56457;52.190;4.440;2023-08-06T05:08:24;100714.97;;;15.89;100.00
69318;BME280;56457;52.190;4.440;2023-08-06T05:09:24;100719.53;;;15.85;100.00
69318;BME280;56457;52.190;4.440;2023-08-06T05:10:25;100709.66;;;15.91;100.00
69318;BME280;56457;52.190;4.440;2023-08-06T05:11:26;100722.72;;;15.95;100.00
69318;BME280;56457;52.190;4.440;2023-08-06T05:12:26;100715.63;;;15.97;100.00
69318;BME280;56457;52.190;4.440;2023-08-06T05:13:26;100721.78;;;15.98;100.00
69318;BME280;56457;52.190;4.440;2023-08-06T05:14:27;100717.41;;;15.97;100.00
69318;BME280;56457;52.190;4.440;2023-08-06T05:15:27;100722.78;;;15.94;100.00
69318;BME280;56457;52.190;4.440;2023-08-06T05:16:27;100721.84;;;15.96;100.00
69318;BME280;56457;52.190;4.440;2023-08-06T05:17:28;100726.97;;;16.01;100.00
69318;BME280;56457;52.190;4.440;2023-08-06T05:18:28;100728.69;;;16.02;100.00
69318;BME280;56457;52.190;4.440;2023-08-06T05:19:30;100729.59;;;16.01;100.00